Time;durP1;ratioP1;P1;durP2;ratioP2;P2;SDS_P1;SDS_P2;PMS_P1;PMS_P2;Temp;Humidity;BMP_temperature;BMP_pressure;BME280_temperature;BME280_humidity;BME280_pressure;Samples;Min_cycle;Max_cycle;Signal;HPM_P1;HPM_P2
2023/03/10 00:04:16;;;;;;;47.08;19.85;;;;;;;0.01;100.00;99102.63;10375060;28;20041;-73
2023/03/10 00:09:16;;;;;;;40.07;20.40;;;;;;;-0.09;100.00;99073.41;10402258;28;20106;-73
2023/03/10 00:14:17;;;;;;;44.22;21.10;;;;;;;-0.01;100.00;99081.22;10408087;28;20040;-74
2023/03/10 00:19:18;;;;;;;45.23;21.60;;;;;;;-0.06;100.00;99067.56;10408347;28;20049;-68
2023/03/10 00:24:18;;;;;;;46.60;20.85;;;;;;;-0.08;100.00;99056.13;10376281;28;20108;-74
2023/03/10 00:29:19;;;;;;;49.90;22.63;;;;;;;0.00;100.00;99055.81;10375124;28;20030;-74
2023/03/10 00:34:19;;;;;;;49.90;21.43;;;;;;;-0.01;100.00;99037.91;10361733;28;20493;-75
2023/03/10 00:39:20;;;;;;;56.58;22.90;;;;;;;0.02;100.00;99036.63;10331188;28;20047;-75
2023/03/10 00:44:20;;;;;;;57.70;26.33;;;;;;;0.00;100.00;99023.34;10301303;28;20499;-75
2023/03/10 00:49:21;;;;;;;56.40;24.58;;;;;;;0.02;100.00;99013.09;10303028;28;20041;-75
2023/03/10 00:54:21;;;;;;;59.57;26.30;;;;;;;-0.01;100.00;98990.03;10356005;28;20045;-74
2023/03/10 00:59:22;;;;;;;53.95;24.23;;;;;;;0.03;100.00;98985.00;10332383;28;20672;-75
2023/03/10 01:04:22;;;;;;;45.30;23.15;;;;;;;-0.01;100.00;98973.00;10285167;28;20399;-75
2023/03/10 01:09:23;;;;;;;49.88;22.45;;;;;;;0.01;100.00;98960.06;10338367;28;20590;-74
2023/03/10 01:14:23;;;;;;;49.03;24.20;;;;;;;0.05;100.00;98968.53;10375729;28;20034;-74
2023/03/10 01:19:24;;;;;;;50.33;22.25;;;;;;;-0.01;100.00;98940.53;10374040;28;20049;-75
2023/03/10 01:24:24;;;;;;;45.47;23.38;;;;;;;0.01;100.00;98938.41;10365579;28;20045;-75
2023/03/10 01:29:25;;;;;;;49.50;23.40;;;;;;;0.02;100.00;98945.44;10381172;28;20037;-75
2023/03/10 01:34:25;;;;;;;47.00;21.77;;;;;;;0.07;100.00;98951.00;10397540;28;20034;-74
2023/03/10 01:39:26;;;;;;;44.13;22.10;;;;;;;0.01;100.00;98927.59;10396755;28;20034;-74
2023/03/10 01:44:26;;;;;;;42.85;21.27;;;;;;;0.11;100.00;98944.06;10395835;28;20592;-75
2023/03/10 01:49:27;;;;;;;41.60;19.83;;;;;;;0.11;100.00;98938.66;10323440;28;20411;-75
2023/03/10 01:54:37;;;;;;;43.75;21.63;;;;;;;0.14;100.00;98921.94;10373349;28;20045;-75
2023/03/10 01:59:37;;;;;;;39.70;19.20;;;;;;;0.04;100.00;98910.88;10333032;28;20049;-74
2023/03/10 02:04:43;;;;;;;38.80;18.75;;;;;;;0.11;100.00;98925.13;10315272;28;20049;-75
2023/03/10 02:09:45;;;;;;;30.08;16.52;;;;;;;0.10;100.00;98926.19;10347606;28;20119;-75
2023/03/10 02:14:45;;;;;;;29.67;16.00;;;;;;;0.02;100.00;98904.88;10420803;28;20063;-74
2023/03/10 02:19:49;;;;;;;28.15;15.48;;;;;;;-0.08;100.00;98891.13;10421486;28;20111;-74
2023/03/10 02:24:56;;;;;;;32.45;15.98;;;;;;;-0.35;100.00;98847.44;10435705;28;20041;-75
2023/03/10 02:29:56;;;;;;;29.52;15.30;;;;;;;0.07;100.00;98910.41;10437138;28;20029;-75
2023/03/10 02:34:57;;;;;;;31.70;15.90;;;;;;;-0.01;100.00;98906.19;10426219;28;20053;-75
2023/03/10 02:39:57;;;;;;;32.77;15.30;;;;;;;-0.01;100.00;98908.06;10360814;28;20044;-75
2023/03/10 02:44:58;;;;;;;33.67;16.53;;;;;;;-0.17;100.00;98882.50;10378794;28;20037;-72
2023/03/10 02:49:58;;;;;;;34.87;16.73;;;;;;;-0.12;100.00;98889.94;10395041;28;20037;-75
2023/03/10 02:54:59;;;;;;;31.38;16.08;;;;;;;-0.06;100.00;98897.13;10394080;28;20045;-75
2023/03/10 02:59:59;;;;;;;33.45;16.25;;;;;;;0.00;100.00;98893.50;10377353;28;20037;-74
2023/03/10 03:05:00;;;;;;;34.97;15.82;;;;;;;-0.07;100.00;98890.06;10377785;28;20037;-73
2023/03/10 03:10:01;;;;;;;35.97;17.23;;;;;;;-0.04;100.00;98889.59;10392864;28;20065;-75
2023/03/10 03:15:01;;;;;;;38.42;17.67;;;;;;;-0.07;100.00;98881.94;10393543;28;20048;-75
2023/03/10 03:20:10;;;;;;;34.33;16.42;;;;;;;-0.03;100.00;98893.94;10394461;28;20057;-75
2023/03/10 03:25:12;;;;;;;35.03;16.87;;;;;;;-0.03;100.00;98892.06;10361523;28;20581;-74
2023/03/10 03:30:17;;;;;;;33.30;17.33;;;;;;;-0.07;100.00;98879.25;10360915;28;20061;-75
2023/03/10 03:35:19;;;;;;;35.13;17.53;;;;;;;-0.01;100.00;98886.41;10377477;28;20029;-75
2023/03/10 03:40:20;;;;;;;41.63;18.30;;;;;;;-0.10;100.00;98871.59;10358091;28;20038;-75
2023/03/10 03:45:22;;;;;;;35.63;17.97;;;;;;;-0.06;100.00;98879.00;10369418;28;20132;-74
2023/03/10 03:50:23;;;;;;;36.43;19.30;;;;;;;0.00;100.00;98879.97;10356590;28;20061;-75
2023/03/10 03:55:23;;;;;;;39.50;20.07;;;;;;;-0.06;100.00;98862.78;10356302;28;20046;-75
2023/03/10 04:00:24;;;;;;;53.03;22.07;;;;;;;-0.11;100.00;98851.00;10346819;28;20034;-74
2023/03/10 04:05:25;;;;;;;48.30;21.53;;;;;;;-0.05;100.00;98852.78;10383936;28;20048;-76
2023/03/10 04:10:28;;;;;;;45.40;20.50;;;;;;;0.00;100.00;98866.44;10373694;28;20057;-73
2023/03/10 04:15:28;;;;;;;52.23;26.20;;;;;;;-0.05;100.00;98869.00;10360037;28;20030;-74
2023/03/10 04:20:29;;;;;;;52.33;24.08;;;;;;;-0.13;100.00;98851.22;10343433;28;20098;-74
2023/03/10 04:25:29;;;;;;;60.00;24.87;;;;;;;0.01;100.00;98873.47;10343135;28;20060;-74
2023/03/10 04:30:30;;;;;;;54.53;24.13;;;;;;;0.00;100.00;98871.84;10351434;28;20037;-74
2023/03/10 04:35:30;;;;;;;56.97;25.02;;;;;;;-0.05;100.00;98869.81;10357437;28;20045;-75
2023/03/10 04:40:31;;;;;;;53.23;24.13;;;;;;;-0.08;100.00;98875.72;10375848;28;20034;-73
2023/03/10 04:45:31;;;;;;;60.03;26.23;;;;;;;0.04;100.00;98883.81;10376486;28;20056;-74
2023/03/10 04:50:32;;;;;;;59.17;24.55;;;;;;;0.01;100.00;98880.78;10358083;28;20035;-74
2023/03/10 04:55:32;;;;;;;63.45;27.30;;;;;;;-0.01;100.00;98881.00;10341975;28;20060;-74
2023/03/10 05:00:33;;;;;;;61.05;27.92;;;;;;;-0.03;100.00;98873.13;10356286;28;20050;-74
2023/03/10 05:05:34;;;;;;;75.53;29.70;;;;;;;-0.01;100.00;98876.41;10355656;28;20041;-74
2023/03/10 05:10:34;;;;;;;77.25;30.85;;;;;;;-0.02;100.00;98873.97;10358427;28;20092;-73
2023/03/10 05:15:35;;;;;;;78.07;31.50;;;;;;;0.00;100.00;98877.25;10374086;28;20078;-74
2023/03/10 05:20:35;;;;;;;88.27;34.07;;;;;;;0.02;100.00;98896.75;10356026;28;20041;-74
2023/03/10 05:25:36;;;;;;;94.70;35.83;;;;;;;-0.01;100.00;98891.81;10354171;28;20068;-74
2023/03/10 05:30:36;;;;;;;101.70;36.43;;;;;;;-0.04;100.00;98882.31;10369610;28;20038;-70
2023/03/10 05:35:37;;;;;;;92.70;34.90;;;;;;;-0.03;100.00;98886.66;10356721;28;20054;-75
2023/03/10 05:40:39;;;;;;;97.93;35.50;;;;;;;-0.08;100.00;98880.31;10373919;28;20132;-74
2023/03/10 05:45:40;;;;;;;96.38;36.78;;;;;;;-0.13;100.00;98881.00;10411382;28;20585;-75
2023/03/10 05:50:40;;;;;;;91.47;34.25;;;;;;;-0.18;100.00;98861.13;10396817;28;20038;-74
2023/03/10 05:55:41;;;;;;;90.53;33.95;;;;;;;-0.18;100.00;98867.34;10378105;28;20065;-76
2023/03/10 06:00:41;;;;;;;79.43;31.63;;;;;;;-0.17;100.00;98876.28;10352010;28;20056;-75
2023/03/10 06:05:42;;;;;;;69.18;27.52;;;;;;;-0.23;100.00;98880.75;10378810;28;20041;-75
2023/03/10 06:10:42;;;;;;;70.97;29.27;;;;;;;-0.24;100.00;98881.81;10396823;28;20508;-74
2023/03/10 06:15:43;;;;;;;78.50;29.67;;;;;;;-0.32;100.00;98872.16;10410235;28;20059;-76
2023/03/10 06:20:43;;;;;;;75.47;27.08;;;;;;;-0.24;100.00;98884.50;10411623;28;20037;-73
2023/03/10 06:25:44;;;;;;;66.10;25.17;;;;;;;-0.32;100.00;98918.13;10380391;28;20064;-75
2023/03/10 06:30:44;;;;;;;59.80;24.92;;;;;;;-0.33;100.00;98872.38;10334979;28;20433;-74
2023/03/10 06:35:45;;;;;;;65.05;26.38;;;;;;;-0.28;100.00;98876.03;10342024;28;20065;-74
2023/03/10 06:40:45;;;;;;;66.40;24.27;;;;;;;-0.29;100.00;98871.69;10354483;28;20034;-69
2023/03/10 06:45:46;;;;;;;63.00;25.43;;;;;;;-0.35;100.00;98864.50;10341790;28;20042;-74
2023/03/10 06:50:47;;;;;;;63.17;25.47;;;;;;;-0.26;100.00;98889.34;10319167;28;20401;-74
2023/03/10 06:56:05;;;;;;;56.35;25.50;;;;;;;-0.27;100.00;98883.09;10353986;28;20133;-75
2023/03/10 07:01:06;;;;;;;60.85;23.02;;;;;;;-0.24;100.00;98893.44;10389033;28;20046;-75
2023/03/10 07:06:06;;;;;;;56.70;23.17;;;;;;;-0.24;100.00;98893.44;10390314;28;20499;-74
2023/03/10 07:11:08;;;;;;;59.17;23.13;;;;;;;-0.26;100.00;98890.16;10412801;28;20057;-74
2023/03/10 07:16:08;;;;;;;60.80;24.60;;;;;;;-0.22;100.00;98907.56;10365501;28;20037;-74
2023/03/10 07:21:10;;;;;;;58.08;24.70;;;;;;;-0.96;100.00;98803.50;10393523;28;20068;-74
2023/03/10 07:26:13;;;;;;;59.13;23.90;;;;;;;-0.26;100.00;98905.56;10376902;28;20045;-73
2023/03/10 07:31:13;;;;;;;65.90;23.48;;;;;;;-0.23;100.00;98922.16;10355731;28;20044;-74
2023/03/10 07:36:16;;;;;;;64.25;24.67;;;;;;;-0.29;100.00;98901.44;10392375;28;20071;-73
2023/03/10 07:41:18;;;;;;;63.53;25.80;;;;;;;-0.14;100.00;98927.22;10408435;28;20120;-72
2023/03/10 07:46:19;;;;;;;60.27;24.27;;;;;;;-0.03;100.00;98948.88;10395432;28;20267;-72
2023/03/10 07:51:20;;;;;;;54.87;22.17;;;;;;;-0.04;100.00;98938.31;10389982;28;20033;-72
2023/03/10 07:56:20;;;;;;;54.67;21.93;;;;;;;0.03;100.00;98930.88;10406511;28;20030;-72
2023/03/10 08:01:21;;;;;;;57.63;22.48;;;;;;;0.12;100.00;98932.19;10422697;28;20524;-72
2023/03/10 08:06:26;;;;;;;56.38;22.48;;;;;;;0.08;100.00;98906.66;10389262;28;20038;-71
2023/03/10 08:11:26;;;;;;;53.22;21.45;;;;;;;0.23;100.00;98927.00;10406061;28;20037;-72
2023/03/10 08:16:27;;;;;;;47.33;21.10;;;;;;;0.19;100.00;98930.19;10422551;28;20037;-73
2023/03/10 08:21:28;;;;;;;51.63;21.80;;;;;;;0.23;100.00;98935.97;10420625;28;20072;-73
2023/03/10 08:26:28;;;;;;;50.53;23.15;;;;;;;0.35;100.00;98965.72;10405347;28;20044;-73
2023/03/10 08:31:28;;;;;;;51.25;21.55;;;;;;;0.24;100.00;98958.44;10389087;28;20037;-72
2023/03/10 08:36:29;;;;;;;51.30;21.90;;;;;;;0.40;100.00;98972.09;10430085;28;20045;-72
2023/03/10 08:41:34;;;;;;;52.00;23.53;;;;;;;0.37;100.00;98944.66;10420720;28;20045;-72
2023/03/10 08:46:35;;;;;;;51.07;22.73;;;;;;;0.46;100.00;98948.69;10405262;28;20375;-72
2023/03/10 08:51:35;;;;;;;54.20;23.50;;;;;;;0.48;100.00;98927.63;10405475;28;20030;-73
2023/03/10 08:56:36;;;;;;;52.67;24.40;;;;;;;0.76;100.00;98945.00;10372895;28;20038;-71
2023/03/10 09:01:37;;;;;;;53.72;25.95;;;;;;;0.75;100.00;98932.53;10375276;28;20034;-72
2023/03/10 09:06:37;;;;;;;55.65;25.10;;;;;;;0.82;100.00;98964.91;10366870;28;20092;-72
2023/03/10 09:11:39;;;;;;;50.38;24.13;;;;;;;0.70;100.00;98951.38;10342133;28;20124;-71
2023/03/10 09:16:40;;;;;;;50.25;24.48;;;;;;;0.65;100.00;98946.66;10320478;28;20043;-73
2023/03/10 09:21:41;;;;;;;48.13;23.87;;;;;;;0.76;100.00;98969.38;10318179;28;20053;-72
2023/03/10 09:26:41;;;;;;;48.10;24.30;;;;;;;0.69;100.00;98979.53;10337057;28;20117;-73
2023/03/10 09:31:42;;;;;;;44.80;23.58;;;;;;;0.68;100.00;98980.56;10357060;28;20041;-72
2023/03/10 09:36:43;;;;;;;42.78;21.17;;;;;;;0.65;100.00;98991.91;10341171;28;20097;-72
2023/03/10 09:41:59;;;;;;;47.13;23.00;;;;;;;0.67;100.00;99008.72;10364502;28;20046;-72
2023/03/10 09:47:08;;;;;;;46.35;22.98;;;;;;;0.65;100.00;99018.97;10370290;28;20099;-73
2023/03/10 09:52:17;;;;;;;46.92;22.33;;;;;;;0.68;100.00;99027.44;10374458;28;20088;-73
2023/03/10 09:57:20;;;;;;;45.43;22.80;;;;;;;0.67;100.00;99023.09;10347003;28;20509;-73
2023/03/10 10:02:31;;;;;;;49.47;23.80;;;;;;;0.72;100.00;99016.97;10350867;28;20098;-72
2023/03/10 10:07:40;;;;;;;47.97;22.45;;;;;;;0.78;100.00;99011.41;10348770;28;20038;-73
2023/03/10 10:12:42;;;;;;;47.67;23.20;;;;;;;0.81;100.00;99018.28;10348040;28;20073;-73
2023/03/10 10:17:53;;;;;;;52.50;23.20;;;;;;;0.91;100.00;99023.94;10369746;28;20049;-72
2023/03/10 10:22:53;;;;;;;49.78;23.02;;;;;;;0.85;100.00;99008.63;10336592;28;20088;-73
2023/03/10 10:27:54;;;;;;;41.55;21.20;;;;;;;0.92;100.00;99020.13;10354898;28;20034;-72
2023/03/10 10:32:59;;;;;;;45.22;22.10;;;;;;;0.94;100.00;99022.63;10353789;28;20133;-73
2023/03/10 10:38:04;;;;;;;42.28;21.35;;;;;;;0.96;100.00;99042.16;10333469;28;20053;-74
2023/03/10 10:43:06;;;;;;;45.17;22.52;;;;;;;0.81;100.00;99039.94;10339759;28;20041;-72
2023/03/10 10:48:30;;;;;;;44.63;22.40;;;;;;;0.72;100.00;99019.66;10374574;28;20049;-73
2023/03/10 10:53:33;;;;;;;46.75;21.55;;;;;;;0.75;100.00;99024.63;10369710;28;20041;-72
2023/03/10 10:58:35;;;;;;;39.75;20.95;;;;;;;0.86;100.00;99026.50;10387709;28;20389;-73
2023/03/10 11:03:43;;;;;;;45.57;21.63;;;;;;;0.79;100.00;99031.22;10372197;28;20861;-72
2023/03/10 11:08:49;;;;;;;41.30;20.48;;;;;;;0.79;100.00;99025.81;10354916;28;20081;-73
2023/03/10 11:14:07;;;;;;;46.08;21.67;;;;;;;0.85;100.00;99042.97;10321702;28;20050;-72
2023/03/10 11:19:16;;;;;;;44.75;23.67;;;;;;;0.77;100.00;99026.03;10319826;28;20045;-72
2023/03/10 11:24:34;;;;;;;48.40;24.45;;;;;;;0.38;100.00;98973.41;10384222;28;20527;-72
2023/03/10 11:29:46;;;;;;;43.73;21.43;;;;;;;0.84;100.00;99047.59;10398493;28;20064;-72
2023/03/10 11:34:52;;;;;;;44.40;22.08;;;;;;;0.88;100.00;99027.09;10350454;28;20030;-72
2023/03/10 11:40:17;;;;;;;47.75;24.15;;;;;;;0.96;100.00;99017.78;10371069;28;20041;-73
2023/03/10 11:45:33;;;;;;;39.10;22.20;;;;;;;1.00;100.00;99022.50;10344664;28;20106;-73
2023/03/10 11:50:36;;;;;;;45.10;21.63;;;;;;;0.95;100.00;99029.66;10370167;28;20053;-72
2023/03/10 11:55:37;;;;;;;38.15;20.45;;;;;;;0.87;100.00;99028.16;10385739;28;20040;-72
2023/03/10 12:00:38;;;;;;;40.88;22.40;;;;;;;0.82;100.00;99024.50;10321329;28;20349;-72
2023/03/10 12:05:51;;;;;;;40.72;20.48;;;;;;;0.73;100.00;99027.56;10354717;28;20419;-73
2023/03/10 12:10:51;;;;;;;41.70;20.83;;;;;;;0.74;100.00;99031.09;10348843;28;20046;-73
2023/03/10 12:15:54;;;;;;;37.45;20.42;;;;;;;0.67;100.00;99011.44;10370200;28;20061;-73
2023/03/10 12:21:13;;;;;;;42.55;20.90;;;;;;;0.77;100.00;99027.94;10366083;28;20049;-73
2023/03/10 12:26:34;;;;;;;41.95;21.25;;;;;;;0.69;100.00;99039.13;10384404;28;20065;-73
2023/03/10 12:31:37;;;;;;;35.70;19.38;;;;;;;0.69;100.00;99039.94;10361686;28;20053;-73
2023/03/10 12:36:38;;;;;;;37.13;18.77;;;;;;;0.66;100.00;99026.84;10414780;28;20072;-73
2023/03/10 12:41:48;;;;;;;37.83;20.55;;;;;;;0.68;100.00;99037.44;10380764;28;20058;-73
2023/03/10 12:47:07;;;;;;;41.33;19.73;;;;;;;0.67;100.00;99049.34;10325244;28;20054;-72
2023/03/10 12:52:26;;;;;;;41.10;19.00;;;;;;;0.64;100.00;99041.69;10358232;28;20054;-73
2023/03/10 12:57:45;;;;;;;37.92;19.35;;;;;;;0.55;100.00;99028.50;10375641;28;20045;-74
2023/03/10 13:02:52;;;;;;;36.00;18.38;;;;;;;0.49;100.00;99026.72;10355262;28;20070;-71
2023/03/10 13:07:56;;;;;;;35.63;18.40;;;;;;;0.48;100.00;99027.78;10337709;28;20287;-73
2023/03/10 13:13:00;;;;;;;37.70;18.85;;;;;;;0.39;100.00;99024.59;10336484;28;20069;-73
2023/03/10 13:18:18;;;;;;;36.55;18.67;;;;;;;0.37;100.00;99029.44;10358241;28;20478;-72
2023/03/10 13:23:41;;;;;;;36.40;18.65;;;;;;;0.34;100.00;99019.06;10351061;28;20056;-72
2023/03/10 13:28:54;;;;;;;38.00;19.15;;;;;;;0.32;100.00;99040.13;10353517;28;20050;-70
2023/03/10 13:33:54;;;;;;;36.70;18.33;;;;;;;0.18;100.00;99025.13;10387513;28;20448;-73
2023/03/10 13:38:56;;;;;;;36.85;20.05;;;;;;;0.25;100.00;99039.41;10378367;28;20440;-73
2023/03/10 13:43:56;;;;;;;42.85;20.65;;;;;;;0.22;100.00;99031.75;10394907;28;20037;-73
2023/03/10 13:49:02;;;;;;;35.08;20.08;;;;;;;0.23;100.00;99032.56;10380037;28;20041;-72
2023/03/10 13:54:23;;;;;;;42.00;21.67;;;;;;;0.33;100.00;99054.47;10381361;28;20041;-72
2023/03/10 13:59:26;;;;;;;39.53;20.85;;;;;;;0.18;100.00;99054.91;10410567;28;20044;-72
2023/03/10 14:04:41;;;;;;;35.55;19.27;;;;;;;0.20;100.00;99050.09;10395424;28;20105;-73
2023/03/10 14:09:41;;;;;;;37.88;19.92;;;;;;;0.13;100.00;99044.78;10410489;28;20069;-73
2023/03/10 14:14:43;;;;;;;42.80;21.55;;;;;;;0.19;100.00;99080.94;10352486;28;20467;-73
2023/03/10 14:19:43;;;;;;;40.63;19.48;;;;;;;0.22;100.00;99090.47;10369795;28;20038;-73
2023/03/10 14:24:44;;;;;;;33.67;18.33;;;;;;;0.01;100.00;99070.16;10353108;28;20109;-72
2023/03/10 14:29:48;;;;;;;35.58;17.52;;;;;;;-0.02;100.00;99082.28;10354166;28;20085;-73
2023/03/10 14:34:49;;;;;;;33.80;17.83;;;;;;;-0.08;100.00;99069.66;10354403;28;20037;-73
2023/03/10 14:39:49;;;;;;;38.73;18.93;;;;;;;0.03;100.00;99119.47;10349651;28;20050;-73
2023/03/10 14:44:50;;;;;;;36.75;18.13;;;;;;;0.03;100.00;99122.97;10331631;28;20248;-72
2023/03/10 14:49:50;;;;;;;36.95;18.30;;;;;;;-0.02;100.00;99133.69;10370275;28;20037;-72
2023/03/10 14:54:51;;;;;;;37.83;19.60;;;;;;;-0.05;100.00;99148.47;10368034;28;20038;-72
2023/03/10 14:59:51;;;;;;;42.28;19.73;;;;;;;-0.09;100.00;99155.38;10352105;28;20042;-72
2023/03/10 15:04:52;;;;;;;39.40;18.27;;;;;;;-0.01;100.00;99162.38;10352068;28;20045;-72
2023/03/10 15:09:52;;;;;;;43.17;20.42;;;;;;;0.03;100.00;99168.16;10368575;28;20038;-69
2023/03/10 15:14:53;;;;;;;45.57;20.63;;;;;;;-0.15;100.00;99129.22;10353325;28;20050;-73
2023/03/10 15:19:53;;;;;;;46.20;23.38;;;;;;;-0.03;100.00;99153.66;10400907;28;20025;-73
2023/03/10 15:24:54;;;;;;;51.75;26.20;;;;;;;-0.02;100.00;99172.38;10414370;28;20075;-73
2023/03/10 15:29:54;;;;;;;57.40;27.58;;;;;;;-0.07;100.00;99168.69;10373622;28;20053;-73
2023/03/10 15:34:55;;;;;;;64.03;27.57;;;;;;;-0.08;100.00;99189.50;10371272;28;20461;-72
2023/03/10 15:39:55;;;;;;;66.05;29.45;;;;;;;-0.22;100.00;99171.78;10355338;28;20534;-72
2023/03/10 15:44:56;;;;;;;59.37;26.87;;;;;;;-0.10;100.00;99202.44;10371294;28;20057;-72
2023/03/10 15:49:56;;;;;;;56.58;25.13;;;;;;;-0.26;100.00;99179.50;10386624;28;20038;-72
2023/03/10 15:54:57;;;;;;;55.85;26.25;;;;;;;-0.16;100.00;99214.16;10362746;28;20133;-72
2023/03/10 15:59:57;;;;;;;50.45;24.38;;;;;;;-0.19;100.00;99225.41;10395891;28;20102;-72
2023/03/10 16:04:58;;;;;;;60.33;25.80;;;;;;;-0.25;100.00;99232.56;10367866;28;20567;-71
2023/03/10 16:09:58;;;;;;;56.15;25.95;;;;;;;-0.35;100.00;99229.53;10375167;28;20061;-71
2023/03/10 16:14:59;;;;;;;54.53;25.17;;;;;;;-0.26;100.00;99257.94;10380847;28;20068;-70
2023/03/10 16:20:01;;;;;;;54.30;24.83;;;;;;;-0.33;100.00;99254.50;10403097;28;20072;-72
2023/03/10 16:25:01;;;;;;;54.00;23.60;;;;;;;-0.29;100.00;99284.59;10380116;28;20037;-70
2023/03/10 16:30:02;;;;;;;59.42;24.10;;;;;;;-0.21;100.00;99303.25;10376071;28;20097;-71
2023/03/10 16:35:04;;;;;;;54.23;24.83;;;;;;;-0.23;100.00;99360.28;10351415;28;20054;-68
2023/03/10 16:40:06;;;;;;;51.60;24.13;;;;;;;-0.31;100.00;99330.81;10377164;28;20033;-70
2023/03/10 16:45:07;;;;;;;54.90;24.23;;;;;;;-0.33;100.00;99349.13;10363233;28;20049;-70
2023/03/10 16:50:11;;;;;;;54.03;24.30;;;;;;;-0.73;100.00;99306.16;10382256;28;20047;-69
2023/03/10 16:55:16;;;;;;;53.22;23.40;;;;;;;-0.40;100.00;99405.13;10405369;28;20042;-70
2023/03/10 17:00:19;;;;;;;55.45;23.40;;;;;;;-0.32;100.00;99426.50;10337731;28;20038;-70
2023/03/10 17:05:21;;;;;;;60.93;25.17;;;;;;;-0.29;100.00;99453.13;10368664;28;20061;-71
2023/03/10 17:10:22;;;;;;;48.77;23.40;;;;;;;-0.30;100.00;99473.06;10360083;28;20041;-71
2023/03/10 17:15:23;;;;;;;47.85;21.40;;;;;;;-0.35;100.00;99486.44;10374710;28;20058;-71
2023/03/10 17:20:24;;;;;;;50.00;20.27;;;;;;;-0.46;100.00;99493.34;10386309;28;20126;-72
2023/03/10 17:25:25;;;;;;;46.90;20.83;;;;;;;-0.45;100.00;99494.19;10399652;28;20500;-72
2023/03/10 17:30:25;;;;;;;48.37;20.20;;;;;;;-0.42;100.00;99502.69;10419883;28;20035;-72
2023/03/10 17:35:26;;;;;;;62.22;22.35;;;;;;;-0.54;100.00;99511.69;10420574;28;20316;-72
2023/03/10 17:40:26;;;;;;;51.60;21.63;;;;;;;-0.37;100.00;99552.56;10446772;28;20049;-72
2023/03/10 17:45:27;;;;;;;37.03;16.15;;;;;;;-0.43;100.00;99565.09;10395787;28;20036;-72
2023/03/10 17:50:27;;;;;;;39.20;15.67;;;;;;;-0.45;100.00;99578.00;10379768;28;20030;-73
2023/03/10 17:55:27;;;;;;;37.58;13.98;;;;;;;-0.65;100.00;99551.03;10356590;28;20075;-68
2023/03/10 18:00:28;;;;;;;29.15;11.63;;;;;;;-0.74;100.00;99563.13;10375497;28;20064;-72
2023/03/10 18:05:28;;;;;;;27.53;10.90;;;;;;;-0.82;100.00;99551.50;10347467;28;20418;-72
2023/03/10 18:10:29;;;;;;;24.73;10.77;;;;;;;-0.67;100.00;99589.09;10398941;28;20462;-72
2023/03/10 18:15:29;;;;;;;20.42;9.32;;;;;;;-0.64;100.00;99602.19;10407083;28;20029;-72
2023/03/10 18:20:30;;;;;;;24.23;9.27;;;;;;;-0.64;100.00;99617.56;10381353;28;20038;-72
2023/03/10 18:25:31;;;;;;;14.70;8.05;;;;;;;-0.63;100.00;99641.69;10410081;28;20100;-72
2023/03/10 18:30:31;;;;;;;11.37;5.57;;;;;;;-0.63;100.00;99663.31;10395664;28;20038;-72
2023/03/10 18:35:31;;;;;;;4.77;3.27;;;;;;;-0.64;100.00;99696.78;10406302;28;20029;-72
2023/03/10 18:40:32;;;;;;;6.10;2.70;;;;;;;-0.71;100.00;99687.84;10394096;28;20041;-72
2023/03/10 18:45:32;;;;;;;4.33;2.70;;;;;;;-0.63;100.00;99725.47;10392527;28;20464;-72
2023/03/10 18:50:33;;;;;;;5.00;3.08;;;;;;;-0.62;100.00;99734.41;10407518;28;20083;-73
2023/03/10 18:55:34;;;;;;;6.78;3.17;;;;;;;-0.69;100.00;99747.94;10371719;28;20033;-72
2023/03/10 19:00:35;;;;;;;9.02;3.08;;;;;;;-0.71;100.00;99758.13;10371804;28;20058;-71
2023/03/10 19:05:36;;;;;;;10.63;5.47;;;;;;;-0.68;100.00;99762.31;10391098;28;20045;-72
2023/03/10 19:10:38;;;;;;;9.95;5.10;;;;;;;-0.68;100.00;99790.16;10426375;28;20038;-72
2023/03/10 19:15:38;;;;;;;10.47;5.90;;;;;;;-0.62;100.00;99796.56;10410307;28;20069;-73
2023/03/10 19:20:39;;;;;;;9.77;5.60;;;;;;;-0.77;100.00;99783.28;10432731;28;20033;-73
2023/03/10 19:25:39;;;;;;;8.47;4.93;;;;;;;-0.63;100.00;99814.69;10431270;28;20056;-73
2023/03/10 19:30:43;;;;;;;16.27;6.60;;;;;;;-0.61;100.00;99817.19;10427353;28;20045;-70
2023/03/10 19:35:43;;;;;;;16.83;8.17;;;;;;;-0.62;100.00;99819.06;10432822;28;20052;-72
2023/03/10 19:40:45;;;;;;;15.33;6.40;;;;;;;-0.73;100.00;99789.09;10416526;28;20029;-72
2023/03/10 19:45:45;;;;;;;9.30;3.90;;;;;;;-0.63;100.00;99820.09;10430983;28;20067;-72
2023/03/10 19:50:51;;;;;;;8.27;3.63;;;;;;;-0.52;100.00;99842.13;10431874;28;20463;-73
2023/03/10 19:55:56;;;;;;;7.20;3.33;;;;;;;-0.59;100.00;99846.72;10415502;28;20063;-73
2023/03/10 20:00:56;;;;;;;3.97;2.77;;;;;;;-0.54;100.00;99871.25;10373532;28;20476;-72
2023/03/10 20:05:57;;;;;;;7.23;4.40;;;;;;;-0.49;100.00;99891.22;10397129;28;20100;-72
2023/03/10 20:11:00;;;;;;;6.70;4.73;;;;;;;-0.53;100.00;99910.78;10428747;28;20033;-72
2023/03/10 20:16:01;;;;;;;7.30;3.63;;;;;;;-0.63;100.00;99887.66;10424311;28;20040;-73
2023/03/10 20:21:02;;;;;;;9.70;3.60;;;;;;;-0.80;100.00;99870.19;10394661;28;20045;-73
2023/03/10 20:26:06;;;;;;;7.05;2.90;;;;;;;-0.59;100.00;99938.63;10413068;28;20040;-72
2023/03/10 20:31:07;;;;;;;5.00;2.90;;;;;;;-0.61;100.00;99964.00;10415471;28;20119;-73
2023/03/10 20:36:12;;;;;;;6.20;2.75;;;;;;;-0.62;100.00;99966.88;10432348;28;20037;-72
2023/03/10 20:41:14;;;;;;;9.57;4.38;;;;;;;-0.63;100.00;99967.94;10447971;28;20041;-72
2023/03/10 20:46:17;;;;;;;4.60;2.60;;;;;;;-0.71;100.00;99968.94;10394538;28;20037;-72
2023/03/10 20:51:18;;;;;;;5.13;2.60;;;;;;;-0.69;100.00;99993.06;10377901;28;20042;-72
2023/03/10 20:56:19;;;;;;;5.97;3.10;;;;;;;-0.73;100.00;100000.75;10353975;28;20084;-73
2023/03/10 21:01:20;;;;;;;8.70;2.83;;;;;;;-0.76;100.00;100019.25;10345367;28;20030;-73
2023/03/10 21:06:22;;;;;;;5.37;2.70;;;;;;;-0.70;100.00;100030.09;10373517;28;20033;-72
2023/03/10 21:11:22;;;;;;;6.97;2.87;;;;;;;-0.66;100.00;100036.75;10372962;28;20038;-72
2023/03/10 21:16:23;;;;;;;7.70;3.17;;;;;;;-0.57;100.00;100050.13;10355665;28;20045;-72
2023/03/10 21:21:23;;;;;;;10.53;3.00;;;;;;;-0.59;100.00;100057.59;10373244;28;20049;-72
2023/03/10 21:26:24;;;;;;;9.17;3.57;;;;;;;-0.58;100.00;100067.34;10362145;28;20042;-72
2023/03/10 21:31:25;;;;;;;8.63;2.63;;;;;;;-0.59;100.00;100077.34;10345560;28;20038;-71
2023/03/10 21:36:25;;;;;;;10.60;2.80;;;;;;;-0.56;100.00;100101.25;10325963;28;20045;-73
2023/03/10 21:41:26;;;;;;;5.88;2.75;;;;;;;-0.64;100.00;100083.34;10358642;28;20064;-72
2023/03/10 21:46:27;;;;;;;9.57;4.00;;;;;;;-1.04;100.00;100025.53;10422061;28;20598;-72
2023/03/10 21:51:27;;;;;;;5.00;2.70;;;;;;;-0.61;100.00;100117.25;10386364;28;20048;-73
2023/03/10 21:56:28;;;;;;;5.27;2.57;;;;;;;-0.63;100.00;100116.63;10438495;28;20072;-72
2023/03/10 22:01:28;;;;;;;12.00;3.20;;;;;;;-0.63;100.00;100122.84;10453794;28;20048;-72
2023/03/10 22:06:29;;;;;;;8.55;3.60;;;;;;;-0.57;100.00;100140.16;10453055;28;20108;-72
2023/03/10 22:11:30;;;;;;;10.15;3.45;;;;;;;-0.55;100.00;100172.41;10383851;28;20061;-72
2023/03/10 22:16:30;;;;;;;5.90;3.17;;;;;;;-0.57;100.00;100150.16;10394236;28;20033;-72
2023/03/10 22:21:30;;;;;;;9.33;3.50;;;;;;;-0.66;100.00;100161.13;10361561;28;20033;-72
2023/03/10 22:26:31;;;;;;;17.13;4.50;;;;;;;-0.57;100.00;100160.97;10393090;28;20057;-72
2023/03/10 22:31:31;;;;;;;17.03;3.43;;;;;;;-0.80;100.00;100134.22;10409828;28;20041;-72
2023/03/10 22:36:32;;;;;;;8.82;3.25;;;;;;;-0.79;100.00;100161.00;10418495;28;20048;-72
2023/03/10 22:41:32;;;;;;;12.00;3.47;;;;;;;-0.71;100.00;100177.06;10373837;28;20080;-73
2023/03/10 22:46:33;;;;;;;7.83;3.00;;;;;;;-0.72;100.00;100172.72;10387251;28;20041;-72
2023/03/10 22:51:33;;;;;;;8.20;4.03;;;;;;;-0.71;100.00;100190.59;10409568;28;20095;-73